createdAt,value
2022-10-07T00:00:09.103Z,16.56
2022-10-07T00:01:09.159Z,16.56
2022-10-07T00:02:09.088Z,16.56
2022-10-07T00:03:08.958Z,16.55
2022-10-07T00:04:08.890Z,16.56
2022-10-07T00:05:08.837Z,16.53
2022-10-07T00:06:08.793Z,16.53
2022-10-07T00:07:08.731Z,16.58
2022-10-07T00:08:08.708Z,16.60
2022-10-07T00:09:08.626Z,16.53
2022-10-07T00:10:08.573Z,16.52
2022-10-07T00:11:08.517Z,16.48
2022-10-07T00:12:08.462Z,16.52
2022-10-07T00:13:08.409Z,16.48
2022-10-07T00:14:08.357Z,16.52
2022-10-07T00:15:08.310Z,16.48
2022-10-07T00:16:08.349Z,16.56
2022-10-07T00:17:08.197Z,16.48
2022-10-07T00:18:08.147Z,16.48
2022-10-07T00:19:08.095Z,16.48
2022-10-07T00:20:08.037Z,16.48
2022-10-07T00:21:07.988Z,16.48
2022-10-07T00:22:07.936Z,16.45
2022-10-07T00:23:07.878Z,16.52
2022-10-07T00:24:07.826Z,16.49
2022-10-07T00:25:07.769Z,16.55
2022-10-07T00:26:07.718Z,16.48
2022-10-07T00:27:07.665Z,16.52
2022-10-07T00:28:07.665Z,16.45
2022-10-07T00:29:07.558Z,16.49
2022-10-07T00:30:07.505Z,16.48
2022-10-07T00:31:07.722Z,16.45
2022-10-07T00:32:07.398Z,16.49
2022-10-07T00:33:07.344Z,16.48
2022-10-07T00:34:07.293Z,16.49
2022-10-07T00:35:07.224Z,16.48
2022-10-07T00:36:07.145Z,16.50
2022-10-07T00:37:07.116Z,16.49
2022-10-07T00:38:07.039Z,16.45
2022-10-07T00:39:06.989Z,16.52
2022-10-07T00:40:06.926Z,16.49
2022-10-07T00:41:06.875Z,16.48
2022-10-07T00:42:06.820Z,16.48
2022-10-07T00:43:07.517Z,16.48
2022-10-07T00:44:06.715Z,16.45
2022-10-07T00:45:06.661Z,16.42
2022-10-07T00:46:06.670Z,16.48
2022-10-07T00:47:06.563Z,16.42
2022-10-07T00:48:06.505Z,16.44
2022-10-07T00:49:06.449Z,16.45
2022-10-07T00:50:06.399Z,16.49
2022-10-07T00:51:06.342Z,16.41
2022-10-07T00:52:06.285Z,16.42
2022-10-07T00:53:06.244Z,16.48
2022-10-07T00:54:06.190Z,16.53
2022-10-07T00:55:06.131Z,16.41
2022-10-07T00:56:06.077Z,16.48
2022-10-07T00:57:06.036Z,16.42
2022-10-07T00:58:05.970Z,16.42
2022-10-07T00:59:05.917Z,16.38
2022-10-07T01:00:05.862Z,16.45
2022-10-07T01:01:05.871Z,16.40
2022-10-07T01:02:05.786Z,16.42
2022-10-07T01:03:05.709Z,16.49
2022-10-07T01:04:05.648Z,16.44
2022-10-07T01:05:05.601Z,16.35
2022-10-07T01:06:05.546Z,16.50
2022-10-07T01:07:05.489Z,16.40
2022-10-07T01:08:05.436Z,16.40
2022-10-07T01:09:05.382Z,16.37
2022-10-07T01:10:05.332Z,16.48
2022-10-07T01:11:05.277Z,16.44
2022-10-07T01:12:05.222Z,16.45
2022-10-07T01:13:05.168Z,16.49
2022-10-07T01:14:05.115Z,16.45
2022-10-07T01:15:05.062Z,16.35
2022-10-07T01:16:05.006Z,16.38
2022-10-07T01:17:05.055Z,16.44
2022-10-07T01:18:04.904Z,16.38
2022-10-07T01:19:04.853Z,16.40
2022-10-07T01:20:04.793Z,16.40
2022-10-07T01:21:04.743Z,16.35
2022-10-07T01:22:04.688Z,16.40
2022-10-07T01:23:04.634Z,16.40
2022-10-07T01:24:04.581Z,16.38
2022-10-07T01:25:04.532Z,16.44
2022-10-07T01:26:04.473Z,16.42
2022-10-07T01:27:04.423Z,16.27
2022-10-07T01:28:04.432Z,16.33
2022-10-07T01:29:04.322Z,16.31
2022-10-07T01:30:04.262Z,16.33
2022-10-07T01:31:04.346Z,16.38
2022-10-07T01:32:04.159Z,16.34
2022-10-07T01:33:04.105Z,16.40
2022-10-07T01:34:04.049Z,16.33
2022-10-07T01:35:04.001Z,16.38
2022-10-07T01:36:03.953Z,16.33
2022-10-07T01:37:03.889Z,16.27
2022-10-07T01:38:03.836Z,16.31
2022-10-07T01:39:03.781Z,16.41
2022-10-07T01:40:03.730Z,16.33
2022-10-07T01:41:03.678Z,16.27
2022-10-07T01:42:03.622Z,16.33
2022-10-07T01:43:03.573Z,16.30
2022-10-07T01:44:03.514Z,16.34
2022-10-07T01:45:03.463Z,16.30
2022-10-07T01:46:03.443Z,16.31
2022-10-07T01:47:03.362Z,16.27
2022-10-07T01:48:03.303Z,16.30
2022-10-07T01:49:03.251Z,16.33
2022-10-07T01:50:03.197Z,16.31
2022-10-07T01:51:03.265Z,16.31
2022-10-07T01:52:03.088Z,16.31
2022-10-07T01:53:03.034Z,16.31
2022-10-07T01:54:02.984Z,16.27
2022-10-07T01:55:02.933Z,16.35
2022-10-07T01:56:02.876Z,16.34
2022-10-07T01:57:02.823Z,16.34
2022-10-07T01:58:02.774Z,16.33
2022-10-07T01:59:02.715Z,16.33
2022-10-07T02:00:02.661Z,16.35
2022-10-07T02:01:02.658Z,16.37
2022-10-07T02:02:02.554Z,16.31
2022-10-07T02:03:02.502Z,16.37
2022-10-07T02:04:02.517Z,16.34
2022-10-07T02:05:02.399Z,16.35
2022-10-07T02:06:02.347Z,16.34
2022-10-07T02:07:02.292Z,16.37
2022-10-07T02:08:02.232Z,16.34
2022-10-07T02:09:02.198Z,16.37
2022-10-07T02:10:02.127Z,16.34
2022-10-07T02:11:02.079Z,16.35
2022-10-07T02:12:02.023Z,16.40
2022-10-07T02:13:01.966Z,16.41
2022-10-07T02:14:01.915Z,16.37
2022-10-07T02:15:01.861Z,16.30
2022-10-07T02:16:01.845Z,16.34
2022-10-07T02:17:01.756Z,16.30
2022-10-07T02:18:01.703Z,16.35
2022-10-07T02:19:01.645Z,16.27
2022-10-07T02:20:01.595Z,16.30
2022-10-07T02:21:01.541Z,16.38
2022-10-07T02:22:04.045Z,16.38
2022-10-07T02:23:01.441Z,16.31
2022-10-07T02:24:01.381Z,16.30
2022-10-07T02:25:01.332Z,16.35
2022-10-07T02:26:02.054Z,16.35
2022-10-07T02:27:01.220Z,16.27
2022-10-07T02:28:02.080Z,16.26
2022-10-07T02:29:01.112Z,16.31
2022-10-07T02:30:01.075Z,16.35
2022-10-07T02:31:01.076Z,16.31
2022-10-07T02:32:00.955Z,16.34
2022-10-07T02:33:00.899Z,16.27
2022-10-07T02:34:00.911Z,16.30
2022-10-07T02:35:00.792Z,16.33
2022-10-07T02:36:00.757Z,16.31
2022-10-07T02:37:00.685Z,16.30
2022-10-07T02:38:00.636Z,16.31
2022-10-07T02:39:00.595Z,16.30
2022-10-07T02:40:00.528Z,16.26
2022-10-07T02:41:00.470Z,16.33
2022-10-07T02:42:00.422Z,16.34
2022-10-07T02:43:00.367Z,16.30
2022-10-07T02:44:00.314Z,16.34
2022-10-07T02:45:00.260Z,16.33
2022-10-07T02:46:00.278Z,16.30
2022-10-07T02:47:00.151Z,16.26
2022-10-07T02:48:00.104Z,16.26
2022-10-07T02:49:00.045Z,16.34
2022-10-07T02:49:59.995Z,16.31
2022-10-07T02:50:59.936Z,16.35
2022-10-07T02:51:59.888Z,16.16
2022-10-07T02:52:59.832Z,16.18
2022-10-07T02:53:59.780Z,16.11
2022-10-07T02:54:59.783Z,16.30
2022-10-07T02:55:59.675Z,16.33
2022-10-07T02:56:59.618Z,16.30
2022-10-07T02:57:59.565Z,16.30
2022-10-07T02:58:59.514Z,16.27
2022-10-07T02:59:59.461Z,16.27
2022-10-07T03:00:59.404Z,16.18
2022-10-07T03:01:59.438Z,16.22
2022-10-07T03:02:59.295Z,16.25
2022-10-07T03:03:59.307Z,16.22
2022-10-07T03:04:59.190Z,16.33
2022-10-07T03:05:59.140Z,16.27
2022-10-07T03:06:59.084Z,16.18
2022-10-07T03:07:59.033Z,16.25
2022-10-07T03:08:58.977Z,16.30
2022-10-07T03:09:58.925Z,16.27
2022-10-07T03:10:58.906Z,16.15
2022-10-07T03:11:58.930Z,16.16
2022-10-07T03:12:58.766Z,16.12
2022-10-07T03:13:58.712Z,16.31
2022-10-07T03:14:58.654Z,16.15
2022-10-07T03:15:58.649Z,16.20
2022-10-07T03:16:58.551Z,16.31
2022-10-07T03:17:58.498Z,16.16
2022-10-07T03:18:58.442Z,16.20
2022-10-07T03:19:58.390Z,16.27
2022-10-07T03:20:58.338Z,16.15
2022-10-07T03:21:58.283Z,16.15
2022-10-07T03:22:58.228Z,16.16
2022-10-07T03:23:58.175Z,16.25
2022-10-07T03:24:58.123Z,16.16
2022-10-07T03:25:58.071Z,16.20
2022-10-07T03:26:58.019Z,16.18
2022-10-07T03:27:57.997Z,16.18
2022-10-07T03:28:58.019Z,16.14
2022-10-07T03:29:57.856Z,16.22
2022-10-07T03:30:57.835Z,16.15
2022-10-07T03:31:57.755Z,16.22
2022-10-07T03:32:57.703Z,16.20
2022-10-07T03:33:57.643Z,16.15
2022-10-07T03:34:57.586Z,16.20
2022-10-07T03:35:57.539Z,16.12
2022-10-07T03:36:57.479Z,16.23
2022-10-07T03:37:57.429Z,16.25
2022-10-07T03:38:57.372Z,16.22
2022-10-07T03:39:57.321Z,16.18
2022-10-07T03:40:57.265Z,16.18
2022-10-07T03:41:57.214Z,16.20
2022-10-07T03:42:57.302Z,16.22
2022-10-07T03:43:57.107Z,16.18
2022-10-07T03:44:57.051Z,16.18
2022-10-07T03:45:57.001Z,16.16
2022-10-07T03:46:57.010Z,16.23
2022-10-07T03:47:56.894Z,16.18
2022-10-07T03:48:56.838Z,16.22
2022-10-07T03:49:56.785Z,16.25
2022-10-07T03:50:56.733Z,16.18
2022-10-07T03:51:56.680Z,16.22
2022-10-07T03:52:56.628Z,16.18
2022-10-07T03:53:56.573Z,16.25
2022-10-07T03:54:56.520Z,16.18
2022-10-07T03:55:56.489Z,16.18
2022-10-07T03:56:56.419Z,16.22
2022-10-07T03:57:59.503Z,16.16
2022-10-07T03:58:56.440Z,16.22
2022-10-07T03:59:56.252Z,16.15
2022-10-07T04:00:56.202Z,16.22
2022-10-07T04:01:56.229Z,16.22
2022-10-07T04:02:56.154Z,16.18
2022-10-07T04:03:56.039Z,16.25
2022-10-07T04:04:55.983Z,16.22
2022-10-07T04:05:55.939Z,16.23
2022-10-07T04:06:55.874Z,16.15
2022-10-07T04:07:55.823Z,16.23
2022-10-07T04:08:55.772Z,16.15
2022-10-07T04:09:55.718Z,16.15
2022-10-07T04:10:55.663Z,16.14
2022-10-07T04:11:55.658Z,16.22
2022-10-07T04:12:55.557Z,16.23
2022-10-07T04:13:55.505Z,16.22
2022-10-07T04:14:55.519Z,16.25
2022-10-07T04:15:55.433Z,16.20
2022-10-07T04:16:55.340Z,16.22
2022-10-07T04:17:55.292Z,16.18
2022-10-07T04:18:55.235Z,16.22
2022-10-07T04:19:55.182Z,16.18
2022-10-07T04:20:55.128Z,16.26
2022-10-07T04:21:55.080Z,16.16
2022-10-07T04:22:55.019Z,16.23
2022-10-07T04:23:54.969Z,16.14
2022-10-07T04:24:54.913Z,16.18
2022-10-07T04:25:54.861Z,16.20
2022-10-07T04:26:54.808Z,16.25
2022-10-07T04:27:54.756Z,16.14
2022-10-07T04:28:54.702Z,16.15
2022-10-07T04:29:54.646Z,16.14
2022-10-07T04:30:54.599Z,16.14
2022-10-07T04:31:54.650Z,16.18
2022-10-07T04:32:54.487Z,16.20
2022-10-07T04:33:54.437Z,16.15
2022-10-07T04:34:54.384Z,16.23
2022-10-07T04:35:54.328Z,16.22
2022-10-07T04:36:54.272Z,16.15
2022-10-07T04:37:54.225Z,16.18
2022-10-07T04:38:54.167Z,16.16
2022-10-07T04:40:00.792Z,16.12
2022-10-07T04:40:54.055Z,16.18
2022-10-07T04:41:54.007Z,16.12
2022-10-07T04:42:53.952Z,16.20
2022-10-07T04:43:57.659Z,16.20
2022-10-07T04:44:53.845Z,16.23
2022-10-07T04:45:53.790Z,16.14
2022-10-07T04:46:53.777Z,16.20
2022-10-07T04:47:53.687Z,16.20
2022-10-07T04:48:53.629Z,16.14
2022-10-07T04:49:53.580Z,16.20
2022-10-07T04:50:53.521Z,16.15
2022-10-07T04:51:53.493Z,16.20
2022-10-07T04:52:53.417Z,16.22
2022-10-07T04:53:56.708Z,16.16
2022-10-07T04:54:53.315Z,16.16
2022-10-07T04:55:53.258Z,16.18
2022-10-07T04:56:53.202Z,16.12
2022-10-07T04:57:53.154Z,16.16
2022-10-07T04:58:53.127Z,16.12
2022-10-07T04:59:53.043Z,16.15
2022-10-07T05:00:53.040Z,16.18
2022-10-07T05:01:53.108Z,16.12
2022-10-07T05:02:59.592Z,16.12
2022-10-07T05:03:52.835Z,16.18
2022-10-07T05:04:52.779Z,16.15
2022-10-07T05:05:52.720Z,16.20
2022-10-07T05:06:52.664Z,16.15
2022-10-07T05:07:52.614Z,16.14
2022-10-07T05:08:52.562Z,16.12
2022-10-07T05:09:52.512Z,16.12
2022-10-07T05:10:52.452Z,16.16
2022-10-07T05:11:52.402Z,16.14
2022-10-07T05:12:55.889Z,16.12
2022-10-07T05:13:52.293Z,16.15
2022-10-07T05:14:52.238Z,16.14
2022-10-07T05:15:52.248Z,16.12
2022-10-07T05:16:52.129Z,16.11
2022-10-07T05:18:02.825Z,16.09
2022-10-07T05:18:52.025Z,16.15
2022-10-07T05:19:52.041Z,16.15
2022-10-07T05:20:51.916Z,16.14
2022-10-07T05:21:51.866Z,16.15
2022-10-07T05:22:51.809Z,16.11
2022-10-07T05:23:51.756Z,16.15
2022-10-07T05:24:54.592Z,16.18
2022-10-07T05:25:51.650Z,16.14
2022-10-07T05:26:51.596Z,16.14
2022-10-07T05:27:51.544Z,16.12
2022-10-07T05:28:51.491Z,16.14
2022-10-07T05:29:51.437Z,16.14
2022-10-07T05:30:51.383Z,16.18
2022-10-07T05:31:51.378Z,16.11
2022-10-07T05:32:51.281Z,16.11
2022-10-07T05:33:51.227Z,16.12
2022-10-07T05:34:51.167Z,16.12
2022-10-07T05:35:51.114Z,16.12
2022-10-07T05:36:51.064Z,16.14
2022-10-07T05:37:51.458Z,16.18
2022-10-07T05:38:50.951Z,16.14
2022-10-07T05:39:50.903Z,16.09
2022-10-07T05:40:50.850Z,16.14
2022-10-07T05:41:50.798Z,16.11
2022-10-07T05:42:50.737Z,16.14
2022-10-07T05:43:50.685Z,16.11
2022-10-07T05:44:50.632Z,16.09
2022-10-07T05:45:50.659Z,16.14
2022-10-07T05:46:50.528Z,16.06
2022-10-07T05:47:50.478Z,16.07
2022-10-07T05:48:50.419Z,16.06
2022-10-07T05:49:50.374Z,16.14
2022-10-07T05:50:50.308Z,16.12
2022-10-07T05:51:50.260Z,16.18
2022-10-07T05:52:50.203Z,16.14
2022-10-07T05:53:50.160Z,16.07
2022-10-07T05:54:50.097Z,16.09
2022-10-07T05:55:50.045Z,16.07
2022-10-07T05:56:49.988Z,16.07
2022-10-07T05:57:49.942Z,16.15
2022-10-07T05:59:10.874Z,16.15
2022-10-07T05:59:49.832Z,16.12
2022-10-07T06:00:49.786Z,16.09
2022-10-07T06:01:49.769Z,16.16
2022-10-07T06:02:49.745Z,16.16
2022-10-07T06:03:49.613Z,16.14
2022-10-07T06:04:49.561Z,16.12
2022-10-07T06:05:49.513Z,16.04
2022-10-07T06:06:49.458Z,16.18
2022-10-07T06:07:49.402Z,16.09
2022-10-07T06:08:49.356Z,16.12
2022-10-07T06:09:49.293Z,16.09
2022-10-07T06:10:49.242Z,16.12
2022-10-07T06:11:49.184Z,16.07
2022-10-07T06:12:49.133Z,16.16
2022-10-07T06:13:49.080Z,16.07
2022-10-07T06:14:49.025Z,16.12
2022-10-07T06:15:48.970Z,16.07
2022-10-07T06:16:48.953Z,16.11
2022-10-07T06:17:49.174Z,16.06
2022-10-07T06:18:48.811Z,16.15
2022-10-07T06:19:48.757Z,16.11
2022-10-07T06:20:48.704Z,16.09
2022-10-07T06:21:48.658Z,16.11
2022-10-07T06:22:48.600Z,16.14
2022-10-07T06:23:48.543Z,16.14
2022-10-07T06:24:48.489Z,16.11
2022-10-07T06:25:48.438Z,16.12
2022-10-07T06:26:48.383Z,16.12
2022-10-07T06:27:53.500Z,16.06
2022-10-07T06:28:48.331Z,16.11
2022-10-07T06:29:48.231Z,16.12
2022-10-07T06:30:48.186Z,16.06
2022-10-07T06:31:48.114Z,16.14
2022-10-07T06:32:48.061Z,16.12
2022-10-07T06:33:48.010Z,16.15
2022-10-07T06:34:47.953Z,16.18
2022-10-07T06:35:47.900Z,16.14
2022-10-07T06:36:47.847Z,16.12
2022-10-07T06:37:48.311Z,16.15
2022-10-07T06:38:47.746Z,16.07
2022-10-07T06:39:47.687Z,16.11
2022-10-07T06:40:47.632Z,16.12
2022-10-07T06:41:47.579Z,16.09
2022-10-07T06:42:47.523Z,16.11
2022-10-07T06:43:47.472Z,16.12
2022-10-07T06:44:47.420Z,16.09
2022-10-07T06:45:47.405Z,16.15
2022-10-07T06:46:47.311Z,16.15
2022-10-07T06:47:47.892Z,16.06
2022-10-07T06:48:47.205Z,16.09
2022-10-07T06:49:47.150Z,16.15
2022-10-07T06:50:47.096Z,16.09
2022-10-07T06:51:47.043Z,16.15
2022-10-07T06:52:46.990Z,16.14
2022-10-07T06:53:46.946Z,16.11
2022-10-07T06:54:46.881Z,16.11
2022-10-07T06:55:46.874Z,16.12
2022-10-07T06:56:46.776Z,16.07
2022-10-07T06:57:46.837Z,16.12
2022-10-07T06:58:46.666Z,16.12
2022-10-07T06:59:46.615Z,16.06
2022-10-07T07:00:46.608Z,16.12
2022-10-07T07:01:46.536Z,16.11
2022-10-07T07:02:46.572Z,16.09
2022-10-07T07:03:46.403Z,16.15
2022-10-07T07:04:46.387Z,16.14
2022-10-07T07:05:47.766Z,16.14
2022-10-07T07:06:46.240Z,16.11
2022-10-07T07:07:46.472Z,16.16
2022-10-07T07:08:46.192Z,16.15
2022-10-07T07:09:46.089Z,16.15
2022-10-07T07:10:46.025Z,16.15
2022-10-07T07:11:46.028Z,16.12
2022-10-07T07:12:46.401Z,16.12
2022-10-07T07:13:46.105Z,16.12
2022-10-07T07:14:45.811Z,16.14
2022-10-07T07:15:45.757Z,16.12
2022-10-07T07:16:45.770Z,16.14
2022-10-07T07:17:45.988Z,16.12
2022-10-07T07:18:45.596Z,16.12
2022-10-07T07:19:45.542Z,16.15
2022-10-07T07:20:45.489Z,16.14
2022-10-07T07:21:48.986Z,16.14
2022-10-07T07:22:45.381Z,16.16
2022-10-07T07:23:45.328Z,16.14
2022-10-07T07:24:45.274Z,16.22
2022-10-07T07:25:45.230Z,16.12
2022-10-07T07:26:45.167Z,16.12
2022-10-07T07:27:45.343Z,16.14
2022-10-07T07:28:45.138Z,16.15
2022-10-07T07:29:45.008Z,16.18
2022-10-07T07:30:44.968Z,16.16
2022-10-07T07:31:44.913Z,16.16
2022-10-07T07:32:44.844Z,16.22
2022-10-07T07:33:44.794Z,16.22
2022-10-07T07:34:44.791Z,16.20
2022-10-07T07:35:44.689Z,16.16
2022-10-07T07:36:44.632Z,16.18
2022-10-07T07:37:44.799Z,16.22
2022-10-07T07:38:44.525Z,16.18
2022-10-07T07:39:44.474Z,16.12
2022-10-07T07:40:44.417Z,16.20
2022-10-07T07:41:44.370Z,16.16
2022-10-07T07:42:44.308Z,16.16
2022-10-07T07:43:44.260Z,16.15
2022-10-07T07:44:44.204Z,16.22
2022-10-07T07:45:44.188Z,16.12
2022-10-07T07:46:44.094Z,16.16
2022-10-07T07:47:44.396Z,16.20
2022-10-07T07:48:43.987Z,16.20
2022-10-07T07:49:43.938Z,16.25
2022-10-07T07:50:43.878Z,16.18
2022-10-07T07:51:43.829Z,16.22
2022-10-07T07:52:43.773Z,16.20
2022-10-07T07:53:43.720Z,16.16
2022-10-07T07:54:43.676Z,16.12
2022-10-07T07:55:43.613Z,16.23
2022-10-07T07:56:43.559Z,16.22
2022-10-07T07:57:43.873Z,16.18
2022-10-07T07:58:43.460Z,16.18
2022-10-07T07:59:43.402Z,16.15
2022-10-07T08:00:43.344Z,16.16
2022-10-07T08:01:43.325Z,16.22
2022-10-07T08:02:43.249Z,16.18
2022-10-07T08:03:43.203Z,16.22
2022-10-07T08:04:43.130Z,16.20
2022-10-07T08:05:43.078Z,16.16
2022-10-07T08:06:43.021Z,16.22
2022-10-07T08:07:43.384Z,16.26
2022-10-07T08:08:42.918Z,16.22
2022-10-07T08:09:42.871Z,16.22
2022-10-07T08:10:42.812Z,16.20
2022-10-07T08:11:42.758Z,16.20
2022-10-07T08:12:42.702Z,16.18
2022-10-07T08:13:42.655Z,16.30
2022-10-07T08:14:42.598Z,16.31
2022-10-07T08:15:42.562Z,16.22
2022-10-07T08:16:42.492Z,16.14
2022-10-07T08:17:42.802Z,16.26
2022-10-07T08:18:42.379Z,16.25
2022-10-07T08:19:42.327Z,16.33
2022-10-07T08:20:42.272Z,16.33
2022-10-07T08:21:42.225Z,16.26
2022-10-07T08:22:42.164Z,16.33
2022-10-07T08:23:42.113Z,16.25
2022-10-07T08:24:42.058Z,16.35
2022-10-07T08:25:42.006Z,16.34
2022-10-07T08:26:41.950Z,16.35
2022-10-07T08:27:41.902Z,16.34
2022-10-07T08:28:41.848Z,16.30
2022-10-07T08:29:41.811Z,16.31
2022-10-07T08:30:41.756Z,16.37
2022-10-07T08:31:41.684Z,16.31
2022-10-07T08:32:41.633Z,16.34
2022-10-07T08:33:41.578Z,16.33
2022-10-07T08:34:41.522Z,16.30
2022-10-07T08:35:41.471Z,16.35
2022-10-07T08:36:41.416Z,16.37
2022-10-07T08:37:41.365Z,16.35
2022-10-07T08:38:41.312Z,16.33
2022-10-07T08:39:41.256Z,16.27
2022-10-07T08:40:41.201Z,16.37
2022-10-07T08:41:41.151Z,16.33
2022-10-07T08:42:41.094Z,16.30
2022-10-07T08:43:41.043Z,16.37
2022-10-07T08:44:40.990Z,16.31
2022-10-07T08:45:40.948Z,16.30
2022-10-07T08:46:40.884Z,16.30
2022-10-07T08:47:40.828Z,16.31
2022-10-07T08:48:40.775Z,16.33
2022-10-07T08:49:40.721Z,16.33
2022-10-07T08:50:40.665Z,16.35
2022-10-07T08:51:40.616Z,16.35
2022-10-07T08:52:40.564Z,16.40
2022-10-07T08:53:40.507Z,16.41
2022-10-07T08:54:40.455Z,16.41
2022-10-07T08:55:40.399Z,16.38
2022-10-07T08:56:40.377Z,16.41
2022-10-07T08:57:40.296Z,16.38
2022-10-07T08:58:40.239Z,16.45
2022-10-07T08:59:40.193Z,16.49
2022-10-07T09:00:40.135Z,16.41
2022-10-07T09:01:40.184Z,16.50
2022-10-07T09:02:40.071Z,16.48
2022-10-07T09:03:39.973Z,16.52
2022-10-07T09:04:39.917Z,16.49
2022-10-07T09:05:39.865Z,16.41
2022-10-07T09:06:39.815Z,16.49
2022-10-07T09:07:39.759Z,16.42
2022-10-07T09:08:39.707Z,16.45
2022-10-07T09:09:39.651Z,16.48
2022-10-07T09:10:39.604Z,16.44
2022-10-07T09:11:39.546Z,16.42
2022-10-07T09:12:39.491Z,16.44
2022-10-07T09:13:39.437Z,16.52
2022-10-07T09:14:39.383Z,16.49
2022-10-07T09:15:39.384Z,16.48
2022-10-07T09:16:39.277Z,16.45
2022-10-07T09:17:39.230Z,16.45
2022-10-07T09:18:39.170Z,16.48
2022-10-07T09:19:39.116Z,16.49
2022-10-07T09:20:39.061Z,16.44
2022-10-07T09:21:39.012Z,16.52
2022-10-07T09:22:38.956Z,16.53
2022-10-07T09:23:38.903Z,16.56
2022-10-07T09:24:38.875Z,16.55
2022-10-07T09:25:38.796Z,16.56
2022-10-07T09:26:38.741Z,16.53
2022-10-07T09:27:38.691Z,16.58
2022-10-07T09:28:38.771Z,16.62
2022-10-07T09:29:38.585Z,16.56
2022-10-07T09:30:38.529Z,16.56
2022-10-07T09:31:38.540Z,16.58
2022-10-07T09:32:38.420Z,16.58
2022-10-07T09:33:38.380Z,16.58
2022-10-07T09:34:38.313Z,16.62
2022-10-07T09:35:38.261Z,16.62
2022-10-07T09:36:38.209Z,16.60
2022-10-07T09:37:38.157Z,16.60
2022-10-07T09:38:38.100Z,16.56
2022-10-07T09:39:38.052Z,16.62
2022-10-07T09:40:37.995Z,16.62
2022-10-07T09:41:37.941Z,16.59
2022-10-07T09:42:37.887Z,16.56
2022-10-07T09:43:37.835Z,16.58
2022-10-07T09:44:37.783Z,16.67
2022-10-07T09:45:37.728Z,16.58
2022-10-07T09:46:37.727Z,16.58
2022-10-07T09:47:37.621Z,16.70
2022-10-07T09:48:37.566Z,16.63
2022-10-07T09:49:37.519Z,16.68
2022-10-07T09:50:37.461Z,16.62
2022-10-07T09:51:37.407Z,16.63
2022-10-07T09:52:37.354Z,16.68
2022-10-07T09:53:37.302Z,16.74
2022-10-07T09:54:37.245Z,16.65
2022-10-07T09:55:37.197Z,16.67
2022-10-07T09:56:37.138Z,16.67
2022-10-07T09:57:37.090Z,16.63
2022-10-07T09:58:37.032Z,16.68
2022-10-07T09:59:36.984Z,16.77
2022-10-07T10:00:36.928Z,16.63
2022-10-07T10:01:36.980Z,16.68
2022-10-07T10:02:36.924Z,16.65
2022-10-07T10:03:36.920Z,16.63
2022-10-07T10:04:36.712Z,16.67
2022-10-07T10:05:36.673Z,16.70
2022-10-07T10:06:36.606Z,16.74
2022-10-07T10:07:36.554Z,16.71
2022-10-07T10:08:36.499Z,16.67
2022-10-07T10:09:36.449Z,16.77
2022-10-07T10:10:36.394Z,16.78
2022-10-07T10:11:36.340Z,16.75
2022-10-07T10:12:38.216Z,16.81
2022-10-07T10:13:36.234Z,16.80
2022-10-07T10:14:36.186Z,16.80
2022-10-07T10:15:36.196Z,16.75
2022-10-07T10:16:36.107Z,16.78
2022-10-07T10:17:36.022Z,16.86
2022-10-07T10:18:35.969Z,16.81
2022-10-07T10:19:37.376Z,16.74
2022-10-07T10:20:35.859Z,16.88
2022-10-07T10:21:35.875Z,16.92
2022-10-07T10:22:35.754Z,16.89
2022-10-07T10:23:35.707Z,16.89
2022-10-07T10:24:35.653Z,16.85
2022-10-07T10:25:35.594Z,16.89
2022-10-07T10:26:35.548Z,16.96
2022-10-07T10:27:35.488Z,16.85
2022-10-07T10:28:35.535Z,16.85
2022-10-07T10:29:35.386Z,16.85
2022-10-07T10:30:35.328Z,16.95
2022-10-07T10:31:35.309Z,16.99
2022-10-07T10:32:35.222Z,16.92
2022-10-07T10:33:35.169Z,16.92
2022-10-07T10:34:35.115Z,17.00
2022-10-07T10:35:35.137Z,17.03
2022-10-07T10:36:35.009Z,16.99
2022-10-07T10:37:34.967Z,17.00
2022-10-07T10:38:34.901Z,16.99
2022-10-07T10:39:34.850Z,17.03
2022-10-07T10:40:34.799Z,17.00
2022-10-07T10:41:34.743Z,17.03
2022-10-07T10:42:34.691Z,17.00
2022-10-07T10:43:34.636Z,17.00
2022-10-07T10:44:34.583Z,16.98
2022-10-07T10:45:34.531Z,17.00
2022-10-07T10:46:34.523Z,16.99
2022-10-07T10:47:34.426Z,17.07
2022-10-07T10:48:34.371Z,17.10
2022-10-07T10:49:34.376Z,17.00
2022-10-07T10:50:34.267Z,17.07
2022-10-07T10:51:34.219Z,17.08
2022-10-07T10:52:34.160Z,17.06
2022-10-07T10:53:34.123Z,17.08
2022-10-07T10:54:34.054Z,17.10
2022-10-07T10:55:33.997Z,17.08
2022-10-07T10:56:33.948Z,17.18
2022-10-07T10:57:33.892Z,17.17
2022-10-07T10:58:33.849Z,17.14
2022-10-07T10:59:33.784Z,17.17
2022-10-07T11:00:33.735Z,17.14
2022-10-07T11:01:33.740Z,17.14
2022-10-07T11:02:33.729Z,17.18
2022-10-07T11:03:33.574Z,17.11
2022-10-07T11:04:33.523Z,17.22
2022-10-07T11:05:33.467Z,17.17
2022-10-07T11:06:33.415Z,17.23
2022-10-07T11:07:33.359Z,17.22
2022-10-07T11:08:38.074Z,17.28
2022-10-07T11:09:33.260Z,17.26
2022-10-07T11:10:33.203Z,17.25
2022-10-07T11:11:33.153Z,17.20
2022-10-07T11:12:33.099Z,17.26
2022-10-07T11:13:33.054Z,17.22
2022-10-07T11:14:32.991Z,17.23
2022-10-07T11:15:32.935Z,17.35
2022-10-07T11:16:32.886Z,17.30
2022-10-07T11:17:32.833Z,17.25
2022-10-07T11:18:32.780Z,17.29
2022-10-07T11:19:32.725Z,17.32
2022-10-07T11:20:32.672Z,17.32
2022-10-07T11:21:32.620Z,17.29
2022-10-07T11:22:32.566Z,17.33
2022-10-07T11:23:32.511Z,17.38
2022-10-07T11:24:32.463Z,17.36
2022-10-07T11:25:32.586Z,17.41
2022-10-07T11:26:34.749Z,17.32
2022-10-07T11:27:32.302Z,17.35
2022-10-07T11:28:32.288Z,17.35
2022-10-07T11:29:32.194Z,17.46
2022-10-07T11:30:32.142Z,17.44
2022-10-07T11:31:32.130Z,17.44
2022-10-07T11:32:32.036Z,17.32
2022-10-07T11:33:31.993Z,17.29
2022-10-07T11:34:31.931Z,17.36
2022-10-07T11:35:31.876Z,17.33
2022-10-07T11:36:31.827Z,17.36
2022-10-07T11:37:31.772Z,17.33
2022-10-07T11:38:31.720Z,17.32
2022-10-07T11:39:31.665Z,17.33
2022-10-07T11:40:31.613Z,17.38
2022-10-07T11:41:31.572Z,17.41
2022-10-07T11:42:31.506Z,17.36
2022-10-07T11:43:31.453Z,17.33
2022-10-07T11:44:31.401Z,17.44
2022-10-07T11:45:31.347Z,17.36
2022-10-07T11:46:31.330Z,17.48
2022-10-07T11:47:31.241Z,17.47
2022-10-07T11:48:31.192Z,17.43
2022-10-07T11:49:31.134Z,17.48
2022-10-07T11:50:31.084Z,17.50
2022-10-07T11:51:31.031Z,17.46
2022-10-07T11:52:33.771Z,17.53
2022-10-07T11:53:30.924Z,17.50
2022-10-07T11:54:30.878Z,17.48
2022-10-07T11:55:30.832Z,17.53
2022-10-07T11:56:30.768Z,17.53
2022-10-07T11:57:30.718Z,17.48
2022-10-07T11:58:30.661Z,17.50
2022-10-07T11:59:30.606Z,17.53
2022-10-07T12:00:30.557Z,17.63
2022-10-07T12:01:30.504Z,17.62
2022-10-07T12:02:30.580Z,17.55
2022-10-07T12:03:30.455Z,17.54
2022-10-07T12:04:30.343Z,17.54
2022-10-07T12:05:30.288Z,17.48
2022-10-07T12:06:30.237Z,17.62
2022-10-07T12:07:30.185Z,17.63
2022-10-07T12:08:30.134Z,17.55
2022-10-07T12:09:30.077Z,17.57
2022-10-07T12:10:30.029Z,17.50
2022-10-07T12:11:29.974Z,17.54
2022-10-07T12:12:29.920Z,17.54
2022-10-07T12:13:29.872Z,17.47
2022-10-07T12:14:29.815Z,17.54
2022-10-07T12:15:29.759Z,17.55
2022-10-07T12:16:29.763Z,17.55
2022-10-07T12:17:29.655Z,17.55
2022-10-07T12:18:29.602Z,17.57
2022-10-07T12:19:29.549Z,17.57
2022-10-07T12:20:29.499Z,17.54
2022-10-07T12:21:29.445Z,17.62
2022-10-07T12:22:29.392Z,17.53
2022-10-07T12:23:29.337Z,17.57
2022-10-07T12:24:29.288Z,17.57
2022-10-07T12:25:29.355Z,17.57
2022-10-07T12:26:29.183Z,17.55
2022-10-07T12:27:29.131Z,17.74
2022-10-07T12:28:29.132Z,17.66
2022-10-07T12:29:29.029Z,17.67
2022-10-07T12:30:28.968Z,17.64
2022-10-07T12:31:29.009Z,17.63
2022-10-07T12:32:28.867Z,17.73
2022-10-07T12:33:28.813Z,17.62
2022-10-07T12:34:28.757Z,17.59
2022-10-07T12:35:28.703Z,17.66
2022-10-07T12:36:28.654Z,17.63
2022-10-07T12:37:28.604Z,17.67
2022-10-07T12:38:28.561Z,17.69
2022-10-07T12:39:28.493Z,17.70
2022-10-07T12:40:28.445Z,17.71
2022-10-07T12:41:28.388Z,17.76
2022-10-07T12:42:28.336Z,17.74
2022-10-07T12:43:28.280Z,17.78
2022-10-07T12:44:28.230Z,17.70
2022-10-07T12:45:28.249Z,17.76
2022-10-07T12:46:28.127Z,17.66
2022-10-07T12:47:28.070Z,17.70
2022-10-07T12:48:28.021Z,17.71
2022-10-07T12:49:27.980Z,17.69
2022-10-07T12:50:27.917Z,17.70
2022-10-07T12:51:27.862Z,17.70